sensor_id;sensor_type;location;lat;lon;timestamp;pressure;altitude;pressure_sealevel;temperature;humidity
23427;BME280;41148;45.420;10.952;2023-12-20T00:01:09;100890.72;;;4.51;87.60
23427;BME280;41148;45.420;10.952;2023-12-20T00:03:37;100884.53;;;4.34;88.03
23427;BME280;41148;45.420;10.952;2023-12-20T00:06:09;100886.31;;;4.32;87.97
23427;BME280;41148;45.420;10.952;2023-12-20T00:08:37;100900.38;;;4.23;88.41
23427;BME280;41148;45.420;10.952;2023-12-20T00:11:05;100890.72;;;4.28;87.63
23427;BME280;41148;45.420;10.952;2023-12-20T00:13:32;100880.13;;;4.24;87.21
23427;BME280;41148;45.420;10.952;2023-12-20T00:16:00;100881.03;;;4.18;88.32
23427;BME280;41148;45.420;10.952;2023-12-20T00:18:27;100865.19;;;4.23;88.44
23427;BME280;41148;45.420;10.952;2023-12-20T00:20:55;100857.31;;;4.37;88.27
23427;BME280;41148;45.420;10.952;2023-12-20T00:23:25;100854.66;;;4.18;88.71
23427;BME280;41148;45.420;10.952;2023-12-20T00:25:53;100840.63;;;4.25;87.98
23427;BME280;41148;45.420;10.952;2023-12-20T00:28:21;100850.28;;;4.25;87.76
23427;BME280;41148;45.420;10.952;2023-12-20T00:30:48;100842.38;;;4.17;88.21
23427;BME280;41148;45.420;10.952;2023-12-20T00:33:16;100848.50;;;4.28;85.93
23427;BME280;41148;45.420;10.952;2023-12-20T00:35:43;100836.19;;;4.32;86.33
23427;BME280;41148;45.420;10.952;2023-12-20T00:38:11;100823.88;;;4.40;86.18
23427;BME280;41148;45.420;10.952;2023-12-20T00:40:39;100830.03;;;4.48;85.16
23427;BME280;41148;45.420;10.952;2023-12-20T00:43:06;100834.44;;;4.20;86.34
23427;BME280;41148;45.420;10.952;2023-12-20T00:45:34;100823.03;;;4.18;87.12
23427;BME280;41148;45.420;10.952;2023-12-20T00:48:01;100802.81;;;4.25;86.27
23427;BME280;41148;45.420;10.952;2023-12-20T00:50:29;100808.94;;;4.36;85.89
23427;BME280;41148;45.420;10.952;2023-12-20T00:52:57;100808.94;;;4.38;85.93
23427;BME280;41148;45.420;10.952;2023-12-20T00:55:24;100808.03;;;4.43;85.24
23427;BME280;41148;45.420;10.952;2023-12-20T00:57:52;100794.88;;;4.28;85.57
23427;BME280;41148;45.420;10.952;2023-12-20T01:00:20;100801.94;;;4.35;86.44
23427;BME280;41148;45.420;10.952;2023-12-20T01:02:48;100800.16;;;4.26;87.52
23427;BME280;41148;45.420;10.952;2023-12-20T01:05:18;100797.50;;;4.22;86.79
23427;BME280;41148;45.420;10.952;2023-12-20T01:07:46;100797.53;;;4.07;88.11
23427;BME280;41148;45.420;10.952;2023-12-20T01:10:14;100789.63;;;3.99;88.39
23427;BME280;41148;45.420;10.952;2023-12-20T01:12:43;100798.41;;;3.90;88.94
23427;BME280;41148;45.420;10.952;2023-12-20T01:15:12;100799.25;;;3.85;89.05
23427;BME280;41148;45.420;10.952;2023-12-20T01:17:39;100805.44;;;3.87;88.52
23427;BME280;41148;45.420;10.952;2023-12-20T01:20:07;100802.75;;;3.76;88.70
23427;BME280;41148;45.420;10.952;2023-12-20T01:22:35;100781.66;;;3.62;89.91
23427;BME280;41148;45.420;10.952;2023-12-20T01:25:03;100789.56;;;3.65;89.18
23427;BME280;41148;45.420;10.952;2023-12-20T01:27:31;100781.63;;;3.47;89.97
23427;BME280;41148;45.420;10.952;2023-12-20T01:29:58;100789.56;;;3.59;89.50
23427;BME280;41148;45.420;10.952;2023-12-20T01:32:26;100784.25;;;3.45;90.01
23427;BME280;41148;45.420;10.952;2023-12-20T01:34:53;100785.16;;;3.49;89.76
23427;BME280;41148;45.420;10.952;2023-12-20T01:37:23;100791.28;;;3.47;89.80
23427;BME280;41148;45.420;10.952;2023-12-20T01:39:52;100786.00;;;3.45;89.94
23427;BME280;41148;45.420;10.952;2023-12-20T01:42:20;100777.22;;;3.44;89.36
23427;BME280;41148;45.420;10.952;2023-12-20T01:44:47;100760.56;;;3.45;88.92
23427;BME280;41148;45.420;10.952;2023-12-20T01:47:15;100764.06;;;3.43;89.30
23427;BME280;41148;45.420;10.952;2023-12-20T01:49:44;100773.66;;;3.24;89.43
23427;BME280;41148;45.420;10.952;2023-12-20T01:52:12;100769.25;;;3.15;90.00
23427;BME280;41148;45.420;10.952;2023-12-20T01:54:40;100774.53;;;3.28;89.19
23427;BME280;41148;45.420;10.952;2023-12-20T01:57:09;100761.34;;;3.11;89.74
23427;BME280;41148;45.420;10.952;2023-12-20T01:59:39;100769.28;;;3.19;89.24
23427;BME280;41148;45.420;10.952;2023-12-20T02:02:07;100753.47;;;3.22;88.69
23427;BME280;41148;45.420;10.952;2023-12-20T02:04:35;100754.38;;;3.34;88.64
23427;BME280;41148;45.420;10.952;2023-12-20T02:07:03;100747.41;;;3.52;88.15
23427;BME280;41148;45.420;10.952;2023-12-20T02:09:31;100743.88;;;3.43;87.39
23427;BME280;41148;45.420;10.952;2023-12-20T02:11:59;100751.78;;;3.54;87.67
23427;BME280;41148;45.420;10.952;2023-12-20T02:14:27;100744.78;;;3.62;87.46
23427;BME280;41148;45.420;10.952;2023-12-20T02:16:55;100733.31;;;3.47;87.00
23427;BME280;41148;45.420;10.952;2023-12-20T02:19:22;100748.25;;;3.35;87.62
23427;BME280;41148;45.420;10.952;2023-12-20T02:21:50;100740.34;;;3.35;88.02
23427;BME280;41148;45.420;10.952;2023-12-20T02:24:18;100738.59;;;3.34;87.52
23427;BME280;41148;45.420;10.952;2023-12-20T02:26:45;100733.34;;;3.50;87.48
23427;BME280;41148;45.420;10.952;2023-12-20T02:29:13;100732.47;;;3.64;86.59
23427;BME280;41148;45.420;10.952;2023-12-20T02:31:41;100722.84;;;3.71;85.78
23427;BME280;41148;45.420;10.952;2023-12-20T02:34:09;100733.38;;;3.74;85.91
23427;BME280;41148;45.420;10.952;2023-12-20T02:36:36;100719.31;;;3.75;85.24
23427;BME280;41148;45.420;10.952;2023-12-20T02:39:04;100721.06;;;3.82;84.76
23427;BME280;41148;45.420;10.952;2023-12-20T02:41:32;100719.31;;;3.84;84.41
23427;BME280;41148;45.420;10.952;2023-12-20T02:44:01;100709.66;;;3.80;85.27
23427;BME280;41148;45.420;10.952;2023-12-20T02:46:29;100707.00;;;3.83;84.96
23427;BME280;41148;45.420;10.952;2023-12-20T02:48:56;100698.25;;;3.72;85.71
23427;BME280;41148;45.420;10.952;2023-12-20T02:51:24;100700.00;;;3.64;86.87
23427;BME280;41148;45.420;10.952;2023-12-20T02:53:52;100699.09;;;3.45;88.08
23427;BME280;41148;45.420;10.952;2023-12-20T02:56:19;100704.34;;;3.47;87.81
23427;BME280;41148;45.420;10.952;2023-12-20T02:58:47;100698.22;;;3.41;87.24
23427;BME280;41148;45.420;10.952;2023-12-20T03:01:15;100690.28;;;3.37;87.07
23427;BME280;41148;45.420;10.952;2023-12-20T03:03:42;100692.94;;;3.57;86.43
23427;BME280;41148;45.420;10.952;2023-12-20T03:06:10;100689.44;;;3.47;85.65
23427;BME280;41148;45.420;10.952;2023-12-20T03:08:38;100682.41;;;3.29;86.67
23427;BME280;41148;45.420;10.952;2023-12-20T03:11:05;100680.63;;;3.25;87.22
23427;BME280;41148;45.420;10.952;2023-12-20T03:13:33;100680.66;;;3.47;86.48
23427;BME280;41148;45.420;10.952;2023-12-20T03:16:08;100663.09;;;3.44;86.59
23427;BME280;41148;45.420;10.952;2023-12-20T03:18:35;100661.38;;;3.48;86.62
23427;BME280;41148;45.420;10.952;2023-12-20T03:21:04;100645.53;;;3.54;85.90
23427;BME280;41148;45.420;10.952;2023-12-20T03:23:32;100652.56;;;3.70;85.52
23427;BME280;41148;45.420;10.952;2023-12-20T03:26:00;100649.91;;;3.76;85.35
23427;BME280;41148;45.420;10.952;2023-12-20T03:28:29;100656.97;;;3.88;85.23
23427;BME280;41148;45.420;10.952;2023-12-20T03:30:57;100635.88;;;3.86;84.95
23427;BME280;41148;45.420;10.952;2023-12-20T03:33:25;100629.72;;;3.81;85.66
23427;BME280;41148;45.420;10.952;2023-12-20T03:35:52;100634.09;;;3.82;85.66
23427;BME280;41148;45.420;10.952;2023-12-20T03:38:21;100616.53;;;3.81;86.25
23427;BME280;41148;45.420;10.952;2023-12-20T03:40:49;100634.09;;;3.74;87.40
23427;BME280;41148;45.420;10.952;2023-12-20T03:43:16;100624.50;;;3.48;88.22
23427;BME280;41148;45.420;10.952;2023-12-20T03:45:44;100627.97;;;3.47;88.29
23427;BME280;41148;45.420;10.952;2023-12-20T03:48:13;100639.41;;;3.53;88.38
23427;BME280;41148;45.420;10.952;2023-12-20T03:50:40;100647.28;;;3.47;89.25
23427;BME280;41148;45.420;10.952;2023-12-20T03:53:08;100655.22;;;3.59;89.56
23427;BME280;41148;45.420;10.952;2023-12-20T03:55:36;100650.81;;;3.44;89.80
23427;BME280;41148;45.420;10.952;2023-12-20T03:58:03;100653.47;;;3.38;89.05
23427;BME280;41148;45.420;10.952;2023-12-20T04:00:31;100646.41;;;3.37;88.65
23427;BME280;41148;45.420;10.952;2023-12-20T04:02:59;100645.53;;;3.20;89.83
23427;BME280;41148;45.420;10.952;2023-12-20T04:05:26;100653.44;;;3.29;89.29
23427;BME280;41148;45.420;10.952;2023-12-20T04:07:54;100625.34;;;3.24;89.05
23427;BME280;41148;45.420;10.952;2023-12-20T04:10:22;100632.34;;;3.26;88.92
23427;BME280;41148;45.420;10.952;2023-12-20T04:12:50;100625.34;;;3.31;89.52
23427;BME280;41148;45.420;10.952;2023-12-20T04:15:17;100626.25;;;3.39;89.60
23427;BME280;41148;45.420;10.952;2023-12-20T04:17:45;100612.16;;;3.47;88.79
23427;BME280;41148;45.420;10.952;2023-12-20T04:20:13;100609.56;;;3.59;88.42
23427;BME280;41148;45.420;10.952;2023-12-20T04:22:41;100606.03;;;3.69;87.08
23427;BME280;41148;45.420;10.952;2023-12-20T04:25:09;100594.59;;;3.64;87.19
23427;BME280;41148;45.420;10.952;2023-12-20T04:27:37;100596.34;;;3.82;85.13
23427;BME280;41148;45.420;10.952;2023-12-20T04:30:05;100581.44;;;3.78;85.11
23427;BME280;41148;45.420;10.952;2023-12-20T04:32:33;100586.66;;;3.82;84.28
23427;BME280;41148;45.420;10.952;2023-12-20T04:35:01;100584.94;;;3.64;85.20
23427;BME280;41148;45.420;10.952;2023-12-20T04:37:29;100598.13;;;3.70;85.34
23427;BME280;41148;45.420;10.952;2023-12-20T04:39:57;100588.50;;;3.50;86.26
23427;BME280;41148;45.420;10.952;2023-12-20T04:42:24;100603.38;;;3.55;85.21
23427;BME280;41148;45.420;10.952;2023-12-20T04:44:52;100600.78;;;3.52;85.76
23427;BME280;41148;45.420;10.952;2023-12-20T04:47:19;100603.41;;;3.29;86.45
23427;BME280;41148;45.420;10.952;2023-12-20T04:49:47;100606.91;;;3.42;86.87
23427;BME280;41148;45.420;10.952;2023-12-20T04:52:15;100592.84;;;3.57;86.87
23427;BME280;41148;45.420;10.952;2023-12-20T04:54:42;100584.09;;;3.67;85.99
23427;BME280;41148;45.420;10.952;2023-12-20T04:57:11;100574.38;;;3.84;84.69
23427;BME280;41148;45.420;10.952;2023-12-20T04:59:39;100577.91;;;3.65;84.51
23427;BME280;41148;45.420;10.952;2023-12-20T05:02:06;100580.53;;;3.86;84.35
23427;BME280;41148;45.420;10.952;2023-12-20T05:04:34;100570.75;;;4.14;82.43
23427;BME280;41148;45.420;10.952;2023-12-20T05:07:02;100578.63;;;4.23;82.29
23427;BME280;41148;45.420;10.952;2023-12-20T05:09:32;100572.53;;;4.05;83.74
23427;BME280;41148;45.420;10.952;2023-12-20T05:12:00;100575.22;;;3.94;84.83
23427;BME280;41148;45.420;10.952;2023-12-20T05:14:28;100589.28;;;3.94;84.73
23427;BME280;41148;45.420;10.952;2023-12-20T05:16:56;100586.63;;;3.99;86.07
23427;BME280;41148;45.420;10.952;2023-12-20T05:19:24;100584.00;;;3.94;86.65
23427;BME280;41148;45.420;10.952;2023-12-20T05:21:52;100594.56;;;3.91;86.28
23427;BME280;41148;45.420;10.952;2023-12-20T05:24:20;100598.97;;;3.80;86.25
23427;BME280;41148;45.420;10.952;2023-12-20T05:26:47;100606.00;;;3.72;86.59
23427;BME280;41148;45.420;10.952;2023-12-20T05:29:19;100589.34;;;3.53;87.20
23427;BME280;41148;45.420;10.952;2023-12-20T05:31:46;100595.50;;;3.67;86.71
23427;BME280;41148;45.420;10.952;2023-12-20T05:34:14;100578.75;;;3.90;85.91
23427;BME280;41148;45.420;10.952;2023-12-20T05:36:42;100575.22;;;3.97;85.24
23427;BME280;41148;45.420;10.952;2023-12-20T05:39:10;100582.25;;;3.98;85.25
23427;BME280;41148;45.420;10.952;2023-12-20T05:41:37;100575.19;;;4.09;85.34
23427;BME280;41148;45.420;10.952;2023-12-20T05:44:05;100576.09;;;3.94;85.16
23427;BME280;41148;45.420;10.952;2023-12-20T05:46:32;100565.66;;;3.59;86.60
23427;BME280;41148;45.420;10.952;2023-12-20T05:49:00;100577.00;;;3.75;86.38
23427;BME280;41148;45.420;10.952;2023-12-20T05:51:27;100572.63;;;3.74;86.75
23427;BME280;41148;45.420;10.952;2023-12-20T05:53:55;100567.38;;;3.77;86.33
23427;BME280;41148;45.420;10.952;2023-12-20T05:56:23;100565.56;;;3.90;86.87
23427;BME280;41148;45.420;10.952;2023-12-20T05:58:50;100569.94;;;3.94;85.54
23427;BME280;41148;45.420;10.952;2023-12-20T06:01:18;100568.25;;;3.78;85.06
23427;BME280;41148;45.420;10.952;2023-12-20T06:03:46;100571.78;;;3.63;85.72
23427;BME280;41148;45.420;10.952;2023-12-20T06:06:13;100571.78;;;3.55;86.40
23427;BME280;41148;45.420;10.952;2023-12-20T06:08:43;100570.91;;;3.58;86.63
23427;BME280;41148;45.420;10.952;2023-12-20T06:11:15;100581.44;;;3.61;86.14
23427;BME280;41148;45.420;10.952;2023-12-20T06:13:43;100576.13;;;3.76;85.55
23427;BME280;41148;45.420;10.952;2023-12-20T06:16:11;100558.53;;;3.86;86.50
23427;BME280;41148;45.420;10.952;2023-12-20T06:18:39;100562.91;;;4.00;85.69
23427;BME280;41148;45.420;10.952;2023-12-20T06:21:07;100558.50;;;3.99;86.08
23427;BME280;41148;45.420;10.952;2023-12-20T06:23:35;100554.16;;;3.91;86.51
23427;BME280;41148;45.420;10.952;2023-12-20T06:26:03;100567.31;;;3.92;85.82
23427;BME280;41148;45.420;10.952;2023-12-20T06:28:30;100556.78;;;3.91;86.35
23427;BME280;41148;45.420;10.952;2023-12-20T06:30:58;100546.22;;;3.97;87.02
23427;BME280;41148;45.420;10.952;2023-12-20T06:33:28;100547.06;;;4.03;85.50
23427;BME280;41148;45.420;10.952;2023-12-20T06:35:57;100532.13;;;4.07;85.22
23427;BME280;41148;45.420;10.952;2023-12-20T06:38:24;100549.75;;;3.93;84.91
23427;BME280;41148;45.420;10.952;2023-12-20T06:40:52;100558.50;;;4.06;84.83
23427;BME280;41148;45.420;10.952;2023-12-20T06:43:19;100555.88;;;3.98;86.29
23427;BME280;41148;45.420;10.952;2023-12-20T06:46:07;100542.69;;;3.99;86.05
23427;BME280;41148;45.420;10.952;2023-12-20T06:48:36;100540.91;;;4.09;85.37
23427;BME280;41148;45.420;10.952;2023-12-20T06:51:03;100525.97;;;4.05;84.51
23427;BME280;41148;45.420;10.952;2023-12-20T06:53:31;100543.47;;;4.23;83.84
23427;BME280;41148;45.420;10.952;2023-12-20T06:55:59;100532.03;;;4.28;84.46
23427;BME280;41148;45.420;10.952;2023-12-20T06:58:27;100541.72;;;4.22;84.38
23427;BME280;41148;45.420;10.952;2023-12-20T07:00:54;100531.22;;;4.10;85.05
23427;BME280;41148;45.420;10.952;2023-12-20T07:03:22;100547.91;;;4.15;85.52
23427;BME280;41148;45.420;10.952;2023-12-20T07:05:50;100531.22;;;4.05;85.97
23427;BME280;41148;45.420;10.952;2023-12-20T07:08:17;100540.88;;;4.17;84.02
23427;BME280;41148;45.420;10.952;2023-12-20T07:10:46;100558.47;;;4.10;83.96
23427;BME280;41148;45.420;10.952;2023-12-20T07:13:14;100563.75;;;4.12;83.83
23427;BME280;41148;45.420;10.952;2023-12-20T07:15:42;100547.88;;;4.21;83.47
23427;BME280;41148;45.420;10.952;2023-12-20T07:18:10;100558.38;;;4.36;83.47
23427;BME280;41148;45.420;10.952;2023-12-20T07:20:37;100553.03;;;4.42;82.44
23427;BME280;41148;45.420;10.952;2023-12-20T07:23:05;100557.41;;;4.49;82.66
23427;BME280;41148;45.420;10.952;2023-12-20T07:25:33;100555.69;;;4.45;82.04
23427;BME280;41148;45.420;10.952;2023-12-20T07:28:00;100578.47;;;4.60;82.01
23427;BME280;41148;45.420;10.952;2023-12-20T07:30:28;100582.84;;;4.67;81.27
23427;BME280;41148;45.420;10.952;2023-12-20T07:32:56;100569.69;;;4.53;80.82
23427;BME280;41148;45.420;10.952;2023-12-20T07:35:24;100576.69;;;4.64;80.60
23427;BME280;41148;45.420;10.952;2023-12-20T07:37:53;100567.88;;;4.66;80.68
23427;BME280;41148;45.420;10.952;2023-12-20T07:40:20;100560.84;;;4.67;79.54
23427;BME280;41148;45.420;10.952;2023-12-20T07:42:48;100556.28;;;4.90;79.39
23427;BME280;41148;45.420;10.952;2023-12-20T07:45:16;100557.03;;;5.09;77.53
23427;BME280;41148;45.420;10.952;2023-12-20T07:47:43;100561.31;;;5.24;76.55
23427;BME280;41148;45.420;10.952;2023-12-20T07:50:11;100572.78;;;5.18;76.89
23427;BME280;41148;45.420;10.952;2023-12-20T07:52:40;100563.97;;;5.22;77.54
23427;BME280;41148;45.420;10.952;2023-12-20T07:55:07;100556.84;;;5.33;78.24
23427;BME280;41148;45.420;10.952;2023-12-20T07:57:35;100582.31;;;5.39;77.81
23427;BME280;41148;45.420;10.952;2023-12-20T08:00:03;100583.34;;;5.20;80.17
23427;BME280;41148;45.420;10.952;2023-12-20T08:02:31;100586.94;;;5.12;80.37
23427;BME280;41148;45.420;10.952;2023-12-20T08:04:59;100585.94;;;5.27;81.23
23427;BME280;41148;45.420;10.952;2023-12-20T08:07:26;100585.81;;;5.39;81.47
23427;BME280;41148;45.420;10.952;2023-12-20T08:09:54;100581.38;;;5.44;80.71
23427;BME280;41148;45.420;10.952;2023-12-20T08:12:24;100590.22;;;5.39;80.71
23427;BME280;41148;45.420;10.952;2023-12-20T08:14:55;100584.94;;;5.43;80.64
23427;BME280;41148;45.420;10.952;2023-12-20T08:17:24;100578.81;;;5.35;81.38
23427;BME280;41148;45.420;10.952;2023-12-20T08:19:52;100581.47;;;5.35;80.25
23427;BME280;41148;45.420;10.952;2023-12-20T08:22:19;100595.59;;;5.31;79.67
23427;BME280;41148;45.420;10.952;2023-12-20T08:24:47;100602.59;;;5.37;78.75
23427;BME280;41148;45.420;10.952;2023-12-20T08:27:15;100599.84;;;5.51;78.38
23427;BME280;41148;45.420;10.952;2023-12-20T08:29:44;100596.19;;;5.64;77.56
23427;BME280;41148;45.420;10.952;2023-12-20T08:32:12;100594.38;;;5.70;76.37
23427;BME280;41148;45.420;10.952;2023-12-20T08:34:40;100600.59;;;5.65;77.38
23427;BME280;41148;45.420;10.952;2023-12-20T08:37:08;100584.56;;;5.79;76.61
23427;BME280;41148;45.420;10.952;2023-12-20T08:39:36;100585.31;;;5.96;75.09
23427;BME280;41148;45.420;10.952;2023-12-20T08:42:03;100605.66;;;5.91;77.19
23427;BME280;41148;45.420;10.952;2023-12-20T08:44:31;100611.75;;;5.99;77.63
23427;BME280;41148;45.420;10.952;2023-12-20T08:46:59;100606.38;;;6.08;77.61
23427;BME280;41148;45.420;10.952;2023-12-20T08:49:27;100609.75;;;6.21;78.10
23427;BME280;41148;45.420;10.952;2023-12-20T08:51:55;100604.34;;;6.27;77.69
23427;BME280;41148;45.420;10.952;2023-12-20T08:54:23;100599.94;;;6.29;77.15
23427;BME280;41148;45.420;10.952;2023-12-20T08:56:50;100595.50;;;6.31;77.07
23427;BME280;41148;45.420;10.952;2023-12-20T08:59:18;100591.84;;;6.41;77.78
23427;BME280;41148;45.420;10.952;2023-12-20T09:01:46;100598.91;;;6.42;79.88
23427;BME280;41148;45.420;10.952;2023-12-20T09:04:15;100582.19;;;6.39;81.87
23427;BME280;41148;45.420;10.952;2023-12-20T09:06:43;100589.31;;;6.32;80.23
23427;BME280;41148;45.420;10.952;2023-12-20T09:09:11;100584.84;;;6.39;79.94
23427;BME280;41148;45.420;10.952;2023-12-20T09:11:41;100601.47;;;6.48;78.69
23427;BME280;41148;45.420;10.952;2023-12-20T09:14:09;100601.41;;;6.53;79.15
23427;BME280;41148;45.420;10.952;2023-12-20T09:16:37;100607.63;;;6.49;81.47
23427;BME280;41148;45.420;10.952;2023-12-20T09:19:04;100604.22;;;6.39;81.79
23427;BME280;41148;45.420;10.952;2023-12-20T09:21:32;100599.81;;;6.37;81.86
23427;BME280;41148;45.420;10.952;2023-12-20T09:24:00;100588.53;;;6.24;82.12
23427;BME280;41148;45.420;10.952;2023-12-20T09:26:27;100585.91;;;6.22;82.60
23427;BME280;41148;45.420;10.952;2023-12-20T09:28:55;100598.19;;;6.26;82.44
23427;BME280;41148;45.420;10.952;2023-12-20T09:31:22;100598.91;;;6.41;82.77
23427;BME280;41148;45.420;10.952;2023-12-20T09:33:50;100602.38;;;6.46;81.65
23427;BME280;41148;45.420;10.952;2023-12-20T09:36:18;100592.00;;;6.29;82.62
23427;BME280;41148;45.420;10.952;2023-12-20T09:38:46;100589.16;;;6.44;83.25
23427;BME280;41148;45.420;10.952;2023-12-20T09:41:14;100579.53;;;6.40;83.17
23427;BME280;41148;45.420;10.952;2023-12-20T09:43:42;100568.06;;;6.37;83.50
23427;BME280;41148;45.420;10.952;2023-12-20T09:46:10;100563.63;;;6.42;83.12
23427;BME280;41148;45.420;10.952;2023-12-20T09:48:40;100554.91;;;6.34;83.38
23427;BME280;41148;45.420;10.952;2023-12-20T09:51:08;100560.03;;;6.44;84.51
23427;BME280;41148;45.420;10.952;2023-12-20T09:53:36;100562.56;;;6.53;84.16
23427;BME280;41148;45.420;10.952;2023-12-20T09:56:05;100569.63;;;6.53;83.04
23427;BME280;41148;45.420;10.952;2023-12-20T09:58:36;100573.13;;;6.56;82.27
23427;BME280;41148;45.420;10.952;2023-12-20T10:01:05;100573.13;;;6.55;82.99
23427;BME280;41148;45.420;10.952;2023-12-20T10:03:34;100562.44;;;6.63;83.82
23427;BME280;41148;45.420;10.952;2023-12-20T10:06:02;100559.59;;;6.78;82.73
23427;BME280;41148;45.420;10.952;2023-12-20T10:08:29;100546.34;;;6.79;82.35
23427;BME280;41148;45.420;10.952;2023-12-20T10:10:57;100530.41;;;6.81;82.39
23427;BME280;41148;45.420;10.952;2023-12-20T10:13:29;100522.59;;;6.73;81.27
23427;BME280;41148;45.420;10.952;2023-12-20T10:15:57;100529.50;;;6.82;81.00
23427;BME280;41148;45.420;10.952;2023-12-20T10:18:25;100533.28;;;6.66;81.39
23427;BME280;41148;45.420;10.952;2023-12-20T10:21:06;100536.78;;;6.69;81.05
23427;BME280;41148;45.420;10.952;2023-12-20T10:23:35;100534.13;;;6.69;81.18
23427;BME280;41148;45.420;10.952;2023-12-20T10:26:03;100525.22;;;6.73;80.18
23427;BME280;41148;45.420;10.952;2023-12-20T10:28:34;100518.25;;;6.69;78.65
23427;BME280;41148;45.420;10.952;2023-12-20T10:31:02;100518.25;;;6.69;77.90
23427;BME280;41148;45.420;10.952;2023-12-20T10:33:31;100521.81;;;6.65;79.49
23427;BME280;41148;45.420;10.952;2023-12-20T10:36:02;100525.34;;;6.64;82.75
23427;BME280;41148;45.420;10.952;2023-12-20T10:38:30;100528.00;;;6.64;84.76
23427;BME280;41148;45.420;10.952;2023-12-20T10:40:58;100534.91;;;6.77;85.46
23427;BME280;41148;45.420;10.952;2023-12-20T10:43:28;100530.38;;;6.82;85.68
23427;BME280;41148;45.420;10.952;2023-12-20T10:45:57;100532.00;;;6.93;86.40
23427;BME280;41148;45.420;10.952;2023-12-20T10:48:25;100533.09;;;6.79;86.22
23427;BME280;41148;45.420;10.952;2023-12-20T10:50:58;100521.69;;;6.74;84.79
23427;BME280;41148;45.420;10.952;2023-12-20T10:53:26;100519.03;;;6.74;82.72
23427;BME280;41148;45.420;10.952;2023-12-20T10:55:55;100516.28;;;6.82;81.63
23427;BME280;41148;45.420;10.952;2023-12-20T10:58:26;100525.22;;;6.73;82.15
23427;BME280;41148;45.420;10.952;2023-12-20T11:01:00;100518.31;;;6.63;82.07
23427;BME280;41148;45.420;10.952;2023-12-20T11:03:35;100507.75;;;6.62;79.86
23427;BME280;41148;45.420;10.952;2023-12-20T11:09:01;100522.97;;;6.46;80.88
23427;BME280;41148;45.420;10.952;2023-12-20T11:14:18;100527.38;;;6.48;81.82
23427;BME280;41148;45.420;10.952;2023-12-20T11:16:47;100525.50;;;6.56;82.09
23427;BME280;41148;45.420;10.952;2023-12-20T11:19:21;100524.75;;;6.47;83.68
23427;BME280;41148;45.420;10.952;2023-12-20T11:21:50;100518.50;;;6.51;84.40
23427;BME280;41148;45.420;10.952;2023-12-20T11:24:21;100515.09;;;6.43;85.20
23427;BME280;41148;45.420;10.952;2023-12-20T11:26:49;100513.16;;;6.54;85.42
23427;BME280;41148;45.420;10.952;2023-12-20T11:29:30;100513.84;;;6.68;84.85
23427;BME280;41148;45.420;10.952;2023-12-20T11:32:02;100516.59;;;6.60;85.04
23427;BME280;41148;45.420;10.952;2023-12-20T11:34:32;100536.06;;;6.55;85.40
23427;BME280;41148;45.420;10.952;2023-12-20T11:37:02;100514.81;;;6.63;85.79
23427;BME280;41148;45.420;10.952;2023-12-20T11:39:30;100517.19;;;6.79;85.71
23427;BME280;41148;45.420;10.952;2023-12-20T11:42:04;100510.91;;;6.85;84.98
23427;BME280;41148;45.420;10.952;2023-12-20T11:44:33;100504.56;;;6.97;84.10
23427;BME280;41148;45.420;10.952;2023-12-20T11:47:00;100496.69;;;6.92;82.62
23427;BME280;41148;45.420;10.952;2023-12-20T11:49:28;100486.91;;;6.97;82.67
23427;BME280;41148;45.420;10.952;2023-12-20T11:51:58;100484.94;;;7.08;81.67
23427;BME280;41148;45.420;10.952;2023-12-20T11:54:29;100487.53;;;7.11;81.46
23427;BME280;41148;45.420;10.952;2023-12-20T11:56:57;100483.09;;;7.15;81.13
23427;BME280;41148;45.420;10.952;2023-12-20T11:59:24;100480.38;;;7.18;81.30
23427;BME280;41148;45.420;10.952;2023-12-20T12:01:52;100484.63;;;7.27;81.15
23427;BME280;41148;45.420;10.952;2023-12-20T12:04:22;100479.31;;;7.28;80.71
23427;BME280;41148;45.420;10.952;2023-12-20T12:06:50;100471.25;;;7.34;81.74
23427;BME280;41148;45.420;10.952;2023-12-20T12:09:18;100463.13;;;7.43;80.67
23427;BME280;41148;45.420;10.952;2023-12-20T12:11:46;100470.06;;;7.51;80.17
23427;BME280;41148;45.420;10.952;2023-12-20T12:14:14;100457.84;;;7.42;80.42
23427;BME280;41148;45.420;10.952;2023-12-20T12:16:42;100454.31;;;7.41;80.87
23427;BME280;41148;45.420;10.952;2023-12-20T12:19:23;100449.19;;;7.34;81.08
23427;BME280;41148;45.420;10.952;2023-12-20T12:22:13;100441.94;;;7.42;80.31
23427;BME280;41148;45.420;10.952;2023-12-20T12:24:43;100447.78;;;7.59;80.37
23427;BME280;41148;45.420;10.952;2023-12-20T12:27:15;100442.50;;;7.59;80.02
23427;BME280;41148;45.420;10.952;2023-12-20T12:30:00;100433.34;;;7.75;79.21
23427;BME280;41148;45.420;10.952;2023-12-20T12:32:28;100425.31;;;7.79;79.01
23427;BME280;41148;45.420;10.952;2023-12-20T12:34:56;100409.44;;;7.77;78.36
23427;BME280;41148;45.420;10.952;2023-12-20T12:37:24;100422.72;;;7.75;78.06
23427;BME280;41148;45.420;10.952;2023-12-20T12:39:55;100427.91;;;7.80;78.94
23427;BME280;41148;45.420;10.952;2023-12-20T12:42:23;100429.66;;;7.81;78.99
23427;BME280;41148;45.420;10.952;2023-12-20T12:44:55;100438.50;;;7.83;79.36
23427;BME280;41148;45.420;10.952;2023-12-20T12:47:26;100439.44;;;7.79;79.85
23427;BME280;41148;45.420;10.952;2023-12-20T12:49:54;100433.09;;;7.86;79.42
23427;BME280;41148;45.420;10.952;2023-12-20T12:52:21;100422.44;;;7.89;79.40
23427;BME280;41148;45.420;10.952;2023-12-20T12:54:50;100426.69;;;7.96;78.37
23427;BME280;41148;45.420;10.952;2023-12-20T12:57:17;100424.81;;;8.03;77.66
23427;BME280;41148;45.420;10.952;2023-12-20T12:59:46;100408.97;;;7.98;77.91
23427;BME280;41148;45.420;10.952;2023-12-20T13:02:14;100415.09;;;8.00;76.89